Time;durP1;ratioP1;P1;durP2;ratioP2;P2;SDS_P1;SDS_P2;PMS_P1;PMS_P2;Temp;Humidity;BMP_temperature;BMP_pressure;BME280_temperature;BME280_humidity;BME280_pressure;Samples;Min_cycle;Max_cycle;Signal;HPM_P1;HPM_P2
2022/05/18 00:03:04;;;;;;;7.90;5.38;;;;;;;16.13;100.00;101808.97;10296321;28;20051;-70
2022/05/18 00:08:08;;;;;;;7.22;4.85;;;;;;;16.15;100.00;101815.84;10331215;28;20057;-70
2022/05/18 00:13:10;;;;;;;9.98;5.88;;;;;;;16.14;100.00;101824.72;10335219;28;20516;-70
2022/05/18 00:18:13;;;;;;;9.38;5.65;;;;;;;16.12;100.00;101825.75;10336389;28;20509;-70
2022/05/18 00:23:15;;;;;;;8.32;6.47;;;;;;;16.25;100.00;101831.94;10335284;28;20050;-71
2022/05/18 00:28:18;;;;;;;10.20;6.22;;;;;;;16.08;100.00;101829.56;10336526;28;20051;-70
2022/05/18 00:33:20;;;;;;;10.18;5.88;;;;;;;15.89;100.00;101832.53;10336829;28;20053;-70
2022/05/18 00:38:23;;;;;;;10.82;6.60;;;;;;;15.78;100.00;101830.53;10335070;28;20046;-70
2022/05/18 00:43:32;;;;;;;11.98;7.30;;;;;;;15.93;100.00;101824.28;10335813;28;20049;-70
2022/05/18 00:48:34;;;;;;;9.38;6.55;;;;;;;15.88;100.00;101836.09;10335304;28;20500;-70
2022/05/18 00:53:45;;;;;;;9.45;6.10;;;;;;;15.74;100.00;101827.22;10334011;28;20054;-70
2022/05/18 00:58:51;;;;;;;;;;;;;;;15.67;100.00;101830.34;10335226;28;20386;-70
2022/05/18 01:03:53;;;;;;;;;;;;;;;15.82;100.00;101833.84;10350248;28;20369;-70
2022/05/18 01:09:05;;;;;;;;;;;;;;;15.89;100.00;101827.25;10350301;28;19922;-70
2022/05/18 01:14:10;;;;;;;;;;;;;;;15.79;100.00;101842.81;10334376;28;19928;-70
2022/05/18 01:19:33;;;;;;;;;;;;;;;15.87;100.00;101834.38;10335315;28;19925;-70
2022/05/18 01:24:39;;;;;;;;;;;;;;;15.84;100.00;101840.72;10334504;28;19922;-71
2022/05/18 01:29:41;;;;;;;;;;;;;;;15.79;100.00;101837.53;10349562;28;19930;-70
2022/05/18 01:34:43;;;;;;;;;;;;;;;15.77;100.00;101831.50;10334296;28;19944;-70
2022/05/18 01:39:50;;;;;;;;;;;;;;;15.71;100.00;101834.50;10333544;28;20282;-70
2022/05/18 01:44:53;;;;;;;;;;;;;;;15.92;100.00;101830.53;10348703;28;19922;-70
2022/05/18 01:49:55;;;;;;;;;;;;;;;15.71;100.00;101831.84;10333420;28;19929;-70
2022/05/18 01:54:57;;;;;;;;;;;;;;;15.61;100.00;101835.06;10333009;28;19921;-70
2022/05/18 01:59:59;;;;;;;;;;;;;;;15.52;100.00;101824.25;10334309;28;19929;-70
2022/05/18 02:05:01;;;;;;;;;;;;;;;15.64;100.00;101831.38;10334141;28;19926;-70
2022/05/18 02:10:04;;;;;;;;;;;;;;;15.63;100.00;101840.25;10333028;28;19965;-70
2022/05/18 02:15:06;;;;;;;;;;;;;;;15.55;100.00;101832.81;10331391;28;19928;-70
2022/05/18 02:20:09;;;;;;;;;;;;;;;15.60;100.00;101827.22;10333465;28;19921;-70
2022/05/18 02:25:11;;;;;;;;;;;;;;;15.60;100.00;101836.00;10333359;28;20008;-70
2022/05/18 02:30:14;;;;;;;;;;;;;;;15.79;100.00;101822.53;10332940;28;19944;-70
2022/05/18 02:35:16;;;;;;;;;;;;;;;15.73;100.00;101822.88;10334146;28;19922;-70
2022/05/18 02:40:19;;;;;;;;;;;;;;;15.65;100.00;101825.19;10348395;28;19932;-70
2022/05/18 02:45:21;;;;;;;;;;;;;;;15.44;100.00;101827.34;10332763;28;20381;-70
2022/05/18 02:50:26;;;;;;;;;;;;;;;15.58;100.00;101824.72;10332521;28;20361;-70
2022/05/18 03:00:49;;;;;;;;;;;;;;;15.70;100.00;101823.09;10335538;28;19945;-70
2022/05/18 03:05:51;;;;;;;;;;;;;;;15.88;100.00;101823.72;10339345;28;19925;-70
2022/05/18 03:10:53;;;;;;;;;;;;;;;15.66;100.00;101818.09;10339927;28;20388;-70
2022/05/18 03:15:56;;;;;;;;;;;;;;;15.53;100.00;101828.56;10339243;28;19922;-71
2022/05/18 03:26:20;;;;;;;;;;;;;;;15.51;100.00;101833.09;10339866;28;19922;-70
2022/05/18 03:31:23;;;;;;;;;;;;;;;15.74;100.00;101837.78;10338585;28;19934;-70
2022/05/18 03:36:25;;;;;;;;;;;;;;;15.56;100.00;101845.03;10338073;28;19976;-70
2022/05/18 03:41:27;;;;;;;;;;;;;;;15.66;100.00;101853.25;10337290;28;19922;-70
2022/05/18 03:46:29;;;;;;;;;;;;;;;15.77;100.00;101855.28;10338972;28;19925;-70
2022/05/18 03:51:32;;;;;;;;;;;;;;;15.58;100.00;101856.38;10338005;28;19968;-70
2022/05/18 03:56:34;;;;;;;;;;;;;;;15.76;100.00;101857.03;10338475;28;19921;-71
2022/05/18 04:01:36;;;;;;;;;;;;;;;15.86;100.00;101856.47;10337524;28;19922;-70
2022/05/18 04:06:39;;;;;;;;;;;;;;;15.75;100.00;101858.00;10337788;28;19984;-70
2022/05/18 04:11:41;;;;;;;;;;;;;;;15.90;100.00;101868.53;10337505;28;19928;-70
2022/05/18 04:16:48;;;;;;;;;;;;;;;15.95;100.00;101866.44;10337175;28;20392;-70
2022/05/18 04:21:51;;;;;;;;;;;;;;;16.08;100.00;101877.94;10352317;28;19921;-70
2022/05/18 04:26:53;;;;;;;;;;;;;;;16.15;100.00;101884.53;10337297;28;19922;-70
2022/05/18 04:31:56;;;;;;;;;;;;;;;16.30;100.00;101880.03;10336966;28;19997;-70
2022/05/18 04:36:58;;;;;;;;;;;;;;;16.64;100.00;101885.81;10336512;28;19921;-70
2022/05/18 04:42:00;;;;;;;;;;;;;;;16.85;100.00;101883.56;10336635;28;19921;-70
2022/05/18 04:47:03;;;;;;;;;;;;;;;17.00;100.00;101880.84;10335632;28;20388;-71
2022/05/18 04:52:07;;;;;;;;;;;;;;;17.21;100.00;101887.28;10335551;28;19921;-70
2022/05/18 04:57:10;;;;;;;;;;;;;;;17.26;100.00;101893.16;10336077;28;19928;-70
2022/05/18 05:02:12;;;;;;;;;;;;;;;17.30;100.00;101895.56;10334300;28;19925;-70
2022/05/18 05:07:14;;;;;;;;;;;;;;;17.36;100.00;101900.44;10334595;28;19949;-70
2022/05/18 05:12:18;;;;;;;;;;;;;;;17.24;100.00;101900.31;10335107;28;19922;-70
2022/05/18 05:17:20;;;;;;;;;;;;;;;17.23;100.00;101909.22;10334318;28;19928;-70
2022/05/18 05:22:23;;;;;;;;;;;;;;;17.26;100.00;101910.81;10334821;28;19922;-71
2022/05/18 05:27:26;;;;;;;;;;;;;;;17.30;100.00;101920.25;10335262;28;20000;-71
2022/05/18 05:32:28;;;;;;;;;;;;;;;17.50;100.00;101918.03;10349725;28;19922;-71
2022/05/18 05:37:30;;;;;;;;;;;;;;;17.65;100.00;101914.31;10334972;28;19922;-71
2022/05/18 05:42:32;;;;;;;;;;;;;;;17.94;96.95;101906.16;10332978;28;19925;-72
2022/05/18 05:47:35;;;;;;;;;;;;;;;18.08;97.31;101908.66;10334418;28;19921;-71
2022/05/18 05:52:37;;;;;;;;;;;;;;;18.22;98.95;101905.00;10333441;28;19921;-71
2022/05/18 05:57:39;;;;;;;;;;;;;;;18.60;94.58;101914.63;10334549;28;19922;-72
2022/05/18 06:02:43;;;;;;;;;;;;;;;18.72;95.23;101912.88;10334072;28;19922;-72
2022/05/18 06:07:45;;;;;;;;;;;;;;;18.74;94.86;101916.25;10333719;28;20301;-72
2022/05/18 06:12:47;;;;;;;;;;;;;;;19.00;92.63;101914.34;10332293;28;19922;-72
2022/05/18 06:17:50;;;;;;;;;;;;;;;19.09;90.90;101918.94;10332225;28;19929;-72
2022/05/18 06:22:52;;;;;;;;;;;;;;;19.31;89.88;101915.50;10332090;28;20297;-72
2022/05/18 06:27:54;;;;;;;;;;;;;;;19.66;85.80;101919.88;10384262;23;19920;-64
2022/05/18 06:32:57;;;;;;;;;;;;;;;19.81;86.52;101915.22;10415248;28;20267;-64
2022/05/18 06:37:59;;;;;;;;;;;;;;;20.32;84.92;101932.41;10419604;28;20323;-64
2022/05/18 06:43:01;;;;;;;;;;;;;;;20.89;81.59;101927.78;10422209;28;20481;-64
2022/05/18 06:48:04;;;;;;;;;;;;;;;21.00;81.31;101942.88;10421764;28;19925;-65
2022/05/18 06:53:06;;;;;;;;;;;;;;;21.09;78.68;101947.41;10421856;28;19928;-64
2022/05/18 06:58:08;;;;;;;;;;;;;;;21.45;77.98;101947.06;10421723;28;19921;-64
2022/05/18 07:03:11;;;;;;;;;;;;;;;21.43;79.60;101951.69;10421880;28;19955;-65
2022/05/18 07:08:13;;;;;;;;;;;;;;;21.53;77.51;101947.31;10421924;28;19951;-65
2022/05/18 07:13:17;;;;;;;;;;;;;;;21.73;77.71;101953.56;10421725;28;19928;-64
2022/05/18 07:18:19;;;;;;;;;;;;;;;21.80;76.58;101954.72;10420348;28;20261;-65
2022/05/18 07:23:22;;;;;;;;;;;;;;;22.42;73.39;101962.69;10419504;28;20395;-64
2022/05/18 07:28:24;;;;;;;;;;;;;;;22.65;73.24;101965.13;10419412;28;19921;-65
2022/05/18 07:33:27;;;;;;;;;;;;;;;22.43;71.11;101970.53;10420987;28;19947;-65
2022/05/18 07:38:30;;;;;;;;;;;;;;;22.78;70.63;101971.84;10418985;28;20292;-65
2022/05/18 07:43:41;;;;;;;;;;;;;;;22.84;74.30;101981.13;10417155;28;20339;-65
2022/05/18 07:48:43;;;;;;;;;;;;;;;22.49;71.16;101984.31;10418885;28;20291;-64
2022/05/18 07:53:45;;;;;;;;;;;;;;;22.31;72.74;101998.31;10419303;28;19921;-65
2022/05/18 07:58:48;;;;;;;;;;;;;;;22.10;72.80;102008.19;10419938;28;19921;-65
2022/05/18 08:03:50;;;;;;;;;;;;;;;22.04;74.57;102006.88;10418538;28;19936;-65
2022/05/18 08:08:53;;;;;;;;;;;;;;;23.61;70.19;102006.13;10417690;28;19931;-65
2022/05/18 08:19:17;;;;;;;;;;;;;;;25.04;60.18;101994.94;10418562;28;20287;-64
2022/05/18 08:24:19;;;;;;;;;;;;;;;24.91;62.63;102020.44;10418283;28;20291;-64
2022/05/18 08:29:22;;;;;;;;;;;;;;;25.85;60.65;102011.78;10417012;28;19927;-64
2022/05/18 08:34:24;;;;;;;;;;;;;;;25.80;61.95;102010.59;10418599;28;19929;-65
2022/05/18 08:39:27;;;;;;;;;;;;;;;26.50;57.65;102008.56;10418367;28;19928;-64
2022/05/18 08:44:31;;;;;;;;;;;;;;;26.64;57.42;102015.16;10418156;28;19936;-64
2022/05/18 08:49:42;;;;;;;;;;;;;;;26.96;57.32;101994.72;10416225;28;19924;-65
2022/05/18 08:54:47;;;;;;;;;;;;;;;27.60;54.54;101994.00;10417833;28;19921;-65
2022/05/18 09:00:07;;;;;;;;;;;;;;;28.05;56.50;101999.81;10416125;28;20372;-64
2022/05/18 09:05:10;;;;;;;;;;;;;;;26.38;61.08;102003.66;10416312;28;19921;-65
2022/05/18 09:10:32;;;;;;;;;;;;;;;25.37;61.39;102010.50;10417285;28;19963;-65
2022/05/18 09:15:40;;;;;;;;;;;;;;;25.71;60.88;102015.91;10417283;28;19921;-64
2022/05/18 09:20:47;;;;;;;;;;;;;;;26.02;60.73;102019.97;10415000;28;19970;-65
2022/05/18 09:26:10;;;;;;;;;;;;;;;26.45;56.11;102012.75;10416015;28;20364;-65
2022/05/18 09:31:34;;;;;;;;;;;;;;;28.10;53.19;102005.50;10412086;28;20403;-65
2022/05/18 09:36:59;;;;;;;;;;;;;;;28.41;51.11;102000.13;10414405;28;19921;-65
2022/05/18 09:42:07;;;;;;;;;;;;;;;27.76;51.28;101993.97;10415621;28;20300;-65
2022/05/18 09:47:14;;;;;;;;;;;;;;;30.04;48.18;102001.56;10414471;28;19964;-65
2022/05/18 09:52:17;;;;;;;;;;;;;;;29.80;49.16;101995.44;10414406;28;20291;-65
2022/05/18 09:57:24;;;;;;;;;;;;;;;29.92;46.97;102000.38;10413419;28;19925;-65
2022/05/18 10:07:51;;;;;;;;;;;;;;;29.80;47.31;101998.16;10414896;28;19927;-65
2022/05/18 10:12:53;;;;;;;;;;;;;;;31.19;46.40;101997.19;10423236;28;19964;-65
2022/05/18 10:17:56;;;;;;;;;;;;;;;30.95;45.63;101995.75;10423815;28;19921;-65
2022/05/18 10:22:59;;;;;;;;;;;;;;;31.47;45.21;101989.06;10421684;28;19944;-65
2022/05/18 10:28:13;;;;;;;;;;;;;;;31.11;44.49;101987.34;10423239;28;19921;-66
2022/05/18 10:33:18;;;;;;;;;;;;;;;29.59;48.41;101992.66;10421513;28;19925;-64
2022/05/18 10:38:20;;;;;;;;;;;;;;;31.37;43.31;101982.31;10421931;28;19928;-65
2022/05/18 10:43:27;;;;;;;;;;;;;;;31.89;44.80;101972.03;10421962;28;19932;-65
2022/05/18 10:48:51;;;;;;;;;;;;;;;31.98;43.12;101968.94;10422523;28;20034;-65
2022/05/18 10:54:06;;;;;;;;;;;;;;;30.05;46.09;101968.16;10419027;28;20402;-65
2022/05/18 10:59:21;;;;;;;;;;;;;;;30.87;47.33;101958.84;10414184;28;19928;-65
2022/05/18 11:04:31;;;;;;;;;;;;;;;31.63;44.35;101951.94;10419412;28;19925;-65
2022/05/18 11:09:34;;;;;;;;;;;;;;;30.37;43.64;101957.94;10420642;28;19921;-65
2022/05/18 11:14:58;;;;;;;;;;;;;;;32.12;42.14;101945.47;10421105;28;19928;-65
2022/05/18 11:20:07;;;;;;;;;;;;;;;32.09;41.33;101948.59;10418954;28;20328;-65
2022/05/18 11:25:12;;;;;;;;;;;;;;;33.41;40.98;101950.78;10420720;28;20407;-66
2022/05/18 11:30:39;;;;;;;;;;;;;;;33.31;40.77;101956.66;10419331;28;20368;-66
2022/05/18 11:35:44;;;;;;;;;;;;;;;32.55;43.12;101942.44;10419191;28;20423;-65
2022/05/18 11:40:49;;;;;;;;;;;;;;;33.90;40.42;101954.00;10419509;28;19921;-66
2022/05/18 11:46:05;;;;;;;;;;;;;;;33.35;40.48;101946.19;10419922;28;19928;-66
2022/05/18 11:51:33;;;;;;;;;;;;;;;33.20;41.52;101947.25;10419182;28;19975;-66
2022/05/18 11:56:36;;;;;;;;;;;;;;;33.89;39.88;101936.84;10417519;28;19921;-66
2022/05/18 12:01:44;;;;;;;;;;;;;;;33.78;40.73;101941.06;10419872;28;19921;-65
2022/05/18 12:07:06;;;;;;;;;;;;;;;32.46;42.70;101935.53;10419809;28;19975;-66
2022/05/18 12:12:24;;;;;;;;;;;;;;;31.10;45.18;101939.72;10418915;28;19921;-65
2022/05/18 12:17:28;;;;;;;;;;;;;;;31.76;44.85;101941.16;10418734;28;20287;-65
2022/05/18 12:22:30;;;;;;;;;;;;;;;32.12;46.42;101937.34;10417896;28;19928;-65
2022/05/18 12:27:33;;;;;;;;;;;;;;;30.94;47.82;101934.59;10418084;28;19925;-65
2022/05/18 12:32:35;;;;;;;;;;;;;;;31.25;44.83;101946.88;10416887;28;20368;-66
2022/05/18 12:38:04;;;;;;;;;;;;;;;29.93;49.58;101954.31;10417357;28;19921;-65
2022/05/18 12:43:24;;;;;;;;;;;;;;;29.92;50.43;101949.91;10415683;28;19943;-65
2022/05/18 12:48:33;;;;;;;;;;;;;;;29.57;49.92;101957.75;10416338;28;20280;-65
2022/05/18 12:53:44;;;;;;;;;;;;;;;29.04;50.91;101952.34;10416738;28;19921;-65
2022/05/18 12:58:54;;;;;;;;;;;;;;;29.81;48.31;101955.81;10417061;28;20391;-65
2022/05/18 13:03:58;;;;;;;;;;;;;;;30.34;48.28;101955.59;10416287;28;19927;-65
2022/05/18 13:09:00;;;;;;;;;;;;;;;30.44;47.39;101947.22;10416211;28;19921;-65
2022/05/18 13:14:04;;;;;;;;;;;;;;;29.70;48.92;101962.47;10416544;28;20431;-65
2022/05/18 13:19:19;;;;;;;;;;;;;;;28.53;54.50;101957.47;10416375;28;20372;-65
2022/05/18 13:24:40;;;;;;;;;;;;;;;28.11;55.64;101951.47;10415634;28;19921;-64
2022/05/18 13:29:43;;;;;;;;;;;;;;;28.36;55.13;101956.72;10415970;28;19928;-65
2022/05/18 13:34:47;;;;;;;;;;;;;;;27.82;56.63;101959.31;10416535;28;19921;-65
2022/05/18 13:39:49;;;;;;;;;;;;;;;29.08;53.67;101961.75;10398918;28;19921;-65
2022/05/18 13:44:53;;;;;;;;;;;;;;;27.92;55.67;101955.41;10415812;28;19927;-65
2022/05/18 13:49:55;;;;;;;;;;;;;;;28.94;53.74;101949.06;10415532;28;19944;-65
2022/05/18 13:54:59;;;;;;;;;;;;;;;28.23;55.69;101951.09;10415627;28;19927;-65
2022/05/18 14:00:03;;;;;;;;;;;;;;;29.10;53.27;101948.06;10414884;28;19921;-65
2022/05/18 14:05:07;;;;;;;;;;;;;;;29.38;51.28;101942.94;10414051;28;19921;-65
2022/05/18 14:10:11;;;;;;;;;;;;;;;29.26;52.18;101944.44;10415158;28;19928;-65
2022/05/18 14:15:19;;;;;;;;;;;;;;;29.69;51.08;101941.94;10415732;28;19921;-65
2022/05/18 14:20:22;;;;;;;;;;;;;;;30.69;49.97;101934.97;10415637;28;19929;-65
2022/05/18 14:25:45;;;;;;;;;;;;;;;29.74;50.25;101936.81;10414900;28;19967;-65
2022/05/18 14:30:47;;;;;;;;;;;;;;;30.46;49.44;101926.25;10413528;28;19929;-65
2022/05/18 14:36:00;;;;;;;;;;;;;;;30.21;50.26;101934.66;10414742;28;20265;-65
2022/05/18 14:41:03;;;;;;;;;;;;;;;30.42;49.89;101939.28;10413357;28;19921;-65
2022/05/18 14:46:06;;;;;;;;;;;;;;;29.89;52.30;101928.72;10413359;28;19921;-65
2022/05/18 14:51:16;;;;;;;;;;;;;;;29.64;52.12;101920.91;10414470;28;19928;-64
2022/05/18 14:56:18;;;;;;;;;;;;;;;29.13;51.65;101925.31;10399712;28;19921;-64
2022/05/18 15:01:34;;;;;;;;;;;;;;;30.64;48.80;101914.97;10421792;28;20284;-65
2022/05/18 15:06:37;;;;;;;;;;;;;;;28.58;52.49;101917.38;10420977;28;19974;-65
2022/05/18 15:11:43;;;;;;;;;;;;;;;28.38;54.92;101914.31;10420121;28;19921;-64
2022/05/18 15:16:47;;;;;;;;;;;;;;;27.98;54.57;101916.22;10421715;28;19921;-65
2022/05/18 15:22:12;;;;;;;;;;;;;;;28.22;54.87;101911.72;10419760;28;19925;-65
2022/05/18 15:27:30;;;;;;;;;;;;;;;27.42;56.63;101913.56;10419377;28;19927;-64
2022/05/18 15:32:36;;;;;;;;;;;;;;;28.19;55.45;101910.19;10420489;28;20357;-64
2022/05/18 15:37:40;;;;;;;;;;;;;;;27.27;57.39;101907.16;10420986;28;19928;-64
2022/05/18 15:42:42;;;;;;;;;;;;;;;28.16;53.78;101900.63;10419487;28;19928;-65
2022/05/18 15:47:52;;;;;;;;;;;;;;;28.27;55.12;101904.75;10419581;28;19925;-64
2022/05/18 15:52:54;;;;;;;;;;;;;;;28.08;55.52;101899.84;10419769;28;20271;-64
2022/05/18 15:57:57;;;;;;;;;;;;;;;28.11;55.41;101900.34;10418397;28;19921;-64
2022/05/18 16:03:00;;;;;;;;;;;;;;;27.97;56.94;101899.25;10418781;28;19921;-64
2022/05/18 16:08:02;;;;;;;;;;;;;;;27.33;58.60;101903.84;10418838;28;20359;-64
2022/05/18 16:13:05;;;;;;;;;;;;;;;27.84;57.68;101896.25;10418392;28;19921;-65
2022/05/18 16:18:08;;;;;;;;;;;;;;;27.65;56.88;101893.97;10417127;28;19924;-64
2022/05/18 16:23:12;;;;;;;;;;;;;;;27.34;58.41;101897.47;10376590;28;19922;-65
2022/05/18 16:28:20;;;;;;;;;;;;;;;26.81;58.22;101905.06;10385652;28;20288;-64
2022/05/18 16:33:27;;;;;;;;;;;;;;;27.58;57.42;101908.09;10416420;28;19976;-64
2022/05/18 16:38:29;;;;;;;;;;;;;;;27.84;57.70;101904.31;10417449;28;19929;-65
2022/05/18 16:43:31;;;;;;;;;;;;;;;27.30;58.30;101899.63;10417642;28;20283;-64
2022/05/18 16:48:33;;;;;;;;;;;;;;;27.34;57.14;101894.75;10416412;28;19929;-64
2022/05/18 16:53:35;;;;;;;;;;;;;;;26.89;59.45;101897.00;10417258;28;20272;-64
2022/05/18 16:58:38;;;;;;;;;;;;;;;26.24;62.06;101895.94;10417171;28;19944;-64
2022/05/18 17:03:40;;;;;;;;;;;;;;;26.77;60.97;101888.44;10415667;28;19921;-64
2022/05/18 17:08:51;;;;;;;;;;;;;;;26.84;61.02;101885.91;10416134;28;19921;-64
2022/05/18 17:13:53;;;;;;;;;;;;;;;26.63;64.74;101887.28;10415732;28;19925;-64
2022/05/18 17:18:55;;;;;;;;;;;;;;;26.64;62.92;101880.88;10415230;28;19921;-65
2022/05/18 17:23:58;;;;;;;;;;;;;;;26.56;63.46;101882.69;10415694;28;19921;-66
2022/05/18 17:29:03;;;;;;;;;;;;;;;26.48;64.00;101879.00;10415078;28;19920;-66
2022/05/18 17:34:06;;;;;;;;;;;;;;;26.29;65.99;101873.94;10399338;28;19925;-66
2022/05/18 17:39:08;;;;;;;;;;;;;;;26.36;65.32;101869.59;10414034;28;20012;-66
2022/05/18 17:44:12;;;;;;;;;;;;;;;26.14;66.18;101879.09;10416045;28;19921;-66
2022/05/18 17:49:15;;;;;;;;;;;;;;;26.26;66.25;101872.44;10416315;28;19951;-66
2022/05/18 17:54:18;;;;;;;;;;;;;;;26.57;64.01;101870.97;10414413;28;19921;-66
2022/05/18 17:59:23;;;;;;;;;;;;;;;26.33;65.98;101864.56;10414645;28;19921;-66
2022/05/18 18:04:25;;;;;;;;;;;;;;;26.18;64.46;101866.22;10394465;28;19921;-66
2022/05/18 18:09:27;;;;;;;;;;;;;;;25.82;66.04;101874.47;10413879;28;19920;-66
2022/05/18 18:14:30;;;;;;;;;;;;;;;25.94;65.09;101865.97;10370857;28;19932;-66
2022/05/18 18:19:32;;;;;;;;;;;;;;;25.60;65.79;101874.06;10383812;28;19933;-66
2022/05/18 18:24:41;;;;;;;;;;;;;;;25.45;67.36;101868.44;10368145;28;19933;-66
2022/05/18 18:29:43;;;;;;;;;;;;;;;25.32;66.04;101874.25;10347261;28;20042;-66
2022/05/18 18:34:46;;;;;;;;;;;;;;;25.26;66.94;101866.00;10405895;28;20051;-66
2022/05/18 18:39:49;;;;;;;;;;;;;;;25.16;67.28;101876.81;10414858;28;20273;-66
2022/05/18 18:44:54;;;;;;;;;;;;;;;25.14;68.62;101866.25;10393543;22;19929;-71
2022/05/18 18:49:56;;;;;;;;;;;;;;;24.68;69.84;101868.28;10395784;28;19925;-71
2022/05/18 18:55:01;;;;;;;;;;;;;;;24.36;72.52;101880.34;10390054;28;19924;-71
2022/05/18 19:00:05;;;;;;;;;;;;;;;24.51;72.79;101861.94;10412524;28;19924;-70
2022/05/18 19:05:13;;;;;;;;;;;;;;;24.09;75.77;101859.81;10390085;28;19946;-71
2022/05/18 19:10:16;;;;;;;;;;;;;;;23.80;76.83;101855.47;10413765;28;20371;-70
2022/05/18 19:15:20;;;;;;;;;;;;;;;23.92;76.19;101859.66;10406259;28;19932;-70
2022/05/18 19:20:24;;;;;;;;;;;;;;;23.87;77.17;101853.94;10356673;28;19932;-70
2022/05/18 19:25:36;;;;;;;;;;;;;;;23.70;77.13;101850.19;10398160;28;19921;-70
2022/05/18 19:30:38;;;;;;;;;;;;;;;23.66;77.75;101861.31;10408949;28;20281;-70
2022/05/18 19:35:41;;;;;;;;;;;;;;;23.40;79.70;101861.97;10395471;28;20288;-70
2022/05/18 19:40:43;;;;;;;;;;;;;;;23.17;80.45;101869.53;10372710;28;19932;-69
2022/05/18 19:45:45;;;;;;;;;;;;;;;23.02;82.05;101873.63;10393264;28;19932;-70
2022/05/18 19:50:48;;;;;;;;;;;;;;;22.73;85.36;101871.81;10411277;28;19970;-70
2022/05/18 19:55:50;;;;;;;;;;;;;;;22.81;84.34;101866.59;10407415;28;20384;-70
2022/05/18 20:00:52;;;;;;;;;;;;;;;22.67;87.01;101869.72;10370833;28;19932;-69
2022/05/18 20:05:54;;;;;;;;;;;;;;;22.75;85.69;101869.84;10371805;28;19968;-70
2022/05/18 20:10:57;;;;;;;;;;;;;;;22.58;86.87;101874.09;10401824;28;19925;-69
2022/05/18 20:15:59;;;;;;;;;;;;;;;22.52;86.32;101891.47;10412442;28;19928;-70
2022/05/18 20:21:02;;;;;;;;;;;;;;;22.49;86.07;101886.41;10412174;28;19978;-70
2022/05/18 20:26:05;;;;;;;;;;;;;;;22.36;87.40;101889.38;10412024;28;19931;-69
2022/05/18 20:31:07;;;;;;;;;;;;;;;22.19;88.15;101882.00;10410938;28;19921;-69
2022/05/18 20:36:11;;;;;;;;;;;;;;;22.28;88.68;101881.22;10409590;28;19925;-69
2022/05/18 20:41:13;;;;;;;;;;;;;;;22.19;88.07;101879.34;10411782;28;19929;-69
2022/05/18 20:46:17;;;;;;;;;;;;;;;21.84;89.95;101878.84;10400164;28;19952;-69
2022/05/18 20:51:20;;;;;;;;;;;;;;;21.67;90.39;101883.00;10373203;28;19972;-69
2022/05/18 20:56:24;;;;;;;;;;;;;;;21.75;88.79;101884.16;10369123;28;19928;-69
2022/05/18 21:01:26;;;;;;;;;;;;;;;21.62;89.32;101890.56;10368292;28;19932;-69
2022/05/18 21:06:28;;;;;;;;;;;;;;;21.50;90.76;101895.13;10380347;28;20540;-69
2022/05/18 21:11:31;;;;;;;;;;;;;;;21.39;90.72;101889.03;10410532;28;19924;-70
2022/05/18 21:16:34;;;;;;;;;;;;;;;21.05;93.41;101882.09;10417143;28;19925;-70
2022/05/18 21:21:36;;;;;;;;;;;;;;;21.03;94.10;101891.16;10416401;28;19927;-70
2022/05/18 21:26:39;;;;;;;;;;;;;;;20.88;95.98;101875.53;10415110;28;19928;-70
2022/05/18 21:31:45;;;;;;;;;;;;;;;21.09;92.37;101874.69;10414678;28;20233;-70
2022/05/18 21:36:48;;;;;;;;;;;;;;;20.87;92.58;101865.84;10413894;28;20260;-69
2022/05/18 21:41:53;;;;;;;;;;;;;;;20.63;94.68;101851.94;10414321;28;19921;-69
2022/05/18 21:46:58;;;;;;;;;;;;;;;20.60;94.85;101861.84;10414499;28;19921;-69
2022/05/18 21:52:00;;;;;;;;;;;;;;;20.56;94.82;101849.78;10414892;28;19928;-69
2022/05/18 21:57:02;;;;;;;;;;;;;;;20.41;95.97;101848.41;10413598;28;20383;-69
2022/05/18 22:02:06;;;;;;;;;;;;;;;19.91;98.86;101848.88;10414632;28;19921;-69
2022/05/18 22:07:08;;;;;;;;;;;;;;;19.79;100.00;101844.56;10420046;28;19928;-69
2022/05/18 22:12:12;;;;;;;;;;;;;;;19.62;100.00;101849.38;10423493;28;19944;-69
2022/05/18 22:17:14;;;;;;;;;;;;;;;19.46;100.00;101841.75;10406279;28;19921;-69
2022/05/18 22:22:17;;;;;;;;;;;;;;;19.57;100.00;101834.75;10423187;28;20384;-69
2022/05/18 22:27:20;;;;;;;;;;;;;;;19.27;100.00;101833.56;10423048;28;19928;-69
2022/05/18 22:32:23;;;;;;;;;;;;;;;19.19;100.00;101830.66;10420813;28;19940;-68
2022/05/18 22:37:25;;;;;;;;;;;;;;;19.25;100.00;101824.88;10421061;28;19921;-68
2022/05/18 22:42:28;;;;;;;;;;;;;;;19.22;100.00;101812.66;10420565;28;19921;-68
2022/05/18 22:47:32;;;;;;;;;;;;;;;19.31;100.00;101808.44;10422532;28;20307;-69
2022/05/18 22:52:34;;;;;;;;;;;;;;;19.19;100.00;101791.66;10422482;28;19928;-69
2022/05/18 22:57:36;;;;;;;;;;;;;;;19.16;100.00;101781.28;10420871;28;20283;-68
2022/05/18 23:02:39;;;;;;;;;;;;;;;19.06;100.00;101778.53;10416724;28;20323;-68
2022/05/18 23:07:41;;;;;;;;;;;;;;;19.05;100.00;101774.19;10420408;28;19921;-68
2022/05/18 23:12:43;;;;;;;;;;;;;;;19.14;100.00;101775.25;10422018;28;19932;-68
2022/05/18 23:17:47;;;;;;;;;;;;;;;19.04;100.00;101769.00;10418567;28;19933;-68
2022/05/18 23:28:10;;;;;;;;;;;;;;;18.89;100.00;101763.06;10420480;28;19936;-68
2022/05/18 23:33:21;;;;;;;;;;;;;;;18.73;100.00;101752.78;10418415;28;19925;-69
2022/05/18 23:38:23;;;;;;;;;;;;;;;18.78;100.00;101747.09;10420132;28;19932;-68
2022/05/18 23:43:25;;;;;;;;;;;;;;;18.74;100.00;101736.72;10420109;28;19921;-68
2022/05/18 23:48:27;;;;;;;;;;;;;;;18.52;100.00;101726.06;10418589;28;20295;-68
2022/05/18 23:53:30;;;;;;;;;;;;;;;18.52;100.00;101721.59;10420169;28;19921;-68
2022/05/18 23:58:32;;;;;;;;;;;;;;;18.52;100.00;101720.75;10419609;28;19921;-68
